createdAt,value
2023-03-11T09:08:48.946Z,1.80
2023-03-11T09:11:18.903Z,1.30
2023-03-11T09:13:45.962Z,1.63
2023-03-11T09:16:15.426Z,1.80
2023-03-11T09:18:43.147Z,1.63
2023-03-11T09:21:11.040Z,1.05
2023-03-11T09:23:43.600Z,1.50
2023-03-11T09:26:12.288Z,1.30
2023-03-11T09:28:40.865Z,1.13
2023-03-11T09:31:08.025Z,1.55
2023-03-11T09:33:42.644Z,1.58
2023-03-11T09:36:14.027Z,1.50
2023-03-11T09:38:41.947Z,1.38
2023-03-11T09:41:16.904Z,1.60
2023-03-11T09:43:56.005Z,1.63
2023-03-11T09:46:48.010Z,1.35
2023-03-11T09:49:42.789Z,1.23
2023-03-11T09:52:15.313Z,1.40
2023-03-11T09:54:47.058Z,1.58
2023-03-11T09:57:25.358Z,2.22
2023-03-11T09:59:52.740Z,1.90
2023-03-11T10:02:22.859Z,1.38
2023-03-11T10:05:04.378Z,2.15
2023-03-11T10:07:42.884Z,1.83
2023-03-11T10:10:17.808Z,1.73
2023-03-11T10:13:00.377Z,1.77
2023-03-11T10:15:54.104Z,1.40
2023-03-11T10:19:01.041Z,1.70
2023-03-11T10:21:46.146Z,1.55
2023-03-11T10:24:34.790Z,1.63
2023-03-11T10:27:08.773Z,1.40
2023-03-11T10:30:05.180Z,1.92
2023-03-11T10:32:50.835Z,1.65
2023-03-11T10:35:22.295Z,1.60
2023-03-11T10:38:15.770Z,2.55
2023-03-11T10:40:45.296Z,1.60
2023-03-11T10:43:16.230Z,1.75
2023-03-11T10:45:45.933Z,1.85
2023-03-11T10:48:18.233Z,2.00
2023-03-11T10:51:12.457Z,1.60
2023-03-11T10:53:48.641Z,2.22
2023-03-11T10:56:36.039Z,2.35
2023-03-11T10:59:06.200Z,1.95
2023-03-11T11:01:34.215Z,1.73
2023-03-11T11:04:02.262Z,2.30
2023-03-11T11:06:36.805Z,2.08
2023-03-11T11:09:20.477Z,2.28
2023-03-11T11:12:05.290Z,1.88
2023-03-11T11:14:52.000Z,2.33
2023-03-11T11:17:34.253Z,1.60
2023-03-11T11:20:13.284Z,1.23
2023-03-11T11:22:52.817Z,2.10
2023-03-11T11:25:33.088Z,1.95
2023-03-11T11:28:02.893Z,1.70
2023-03-11T11:30:30.217Z,2.33
2023-03-11T11:33:14.776Z,1.90
2023-03-11T11:35:53.176Z,1.42
2023-03-11T11:38:24.605Z,1.85
2023-03-11T11:40:53.701Z,1.60
2023-03-11T11:43:32.666Z,1.67
2023-03-11T11:46:06.551Z,1.73
2023-03-11T11:49:11.345Z,1.73
2023-03-11T11:51:44.726Z,2.33
2023-03-11T11:54:36.641Z,3.30
2023-03-11T11:57:16.942Z,2.67
2023-03-11T11:59:44.569Z,2.38
2023-03-11T12:02:27.113Z,2.03
2023-03-11T12:05:03.502Z,2.13
2023-03-11T12:07:46.726Z,1.75
2023-03-11T12:10:36.321Z,2.53
2023-03-11T12:13:34.440Z,2.20
2023-03-11T12:16:04.588Z,2.22
2023-03-11T12:19:12.211Z,1.50
2023-03-11T12:21:56.010Z,1.98
2023-03-11T12:24:47.923Z,1.90
2023-03-11T12:27:33.121Z,1.38
2023-03-11T12:30:16.211Z,1.40
2023-03-11T12:32:58.125Z,1.90
2023-03-11T12:35:28.768Z,2.40
2023-03-11T12:38:05.193Z,2.47
2023-03-11T12:41:00.288Z,1.98
2023-03-11T12:43:36.582Z,2.45
2023-03-11T12:46:10.907Z,2.25
2023-03-11T12:48:44.559Z,1.88
2023-03-11T12:51:27.494Z,1.95
2023-03-11T12:53:56.478Z,2.15
2023-03-11T12:56:30.701Z,2.15
2023-03-11T12:59:12.730Z,2.33
2023-03-11T13:01:59.242Z,1.95
2023-03-11T13:05:04.865Z,2.03
2023-03-11T13:07:41.753Z,2.35
2023-03-11T13:10:20.548Z,1.77
2023-03-11T13:15:19.355Z,1.98
2023-03-11T13:18:15.129Z,2.22
2023-03-11T13:20:42.150Z,1.90
2023-03-11T13:23:12.381Z,2.03
2023-03-11T13:25:44.147Z,2.20
2023-03-11T13:28:32.282Z,2.22
2023-03-11T13:31:04.386Z,2.42
2023-03-11T13:33:43.096Z,2.20
2023-03-11T13:36:19.451Z,2.70
2023-03-11T13:39:09.041Z,2.35
2023-03-11T13:41:42.747Z,1.48
2023-03-11T13:44:35.427Z,2.38
2023-03-11T13:47:16.939Z,3.05
2023-03-11T13:50:06.288Z,2.08
2023-03-11T13:52:37.108Z,2.20
2023-03-11T13:55:30.939Z,2.17
2023-03-11T13:57:58.343Z,2.15
2023-03-11T14:00:28.647Z,2.45
2023-03-11T14:03:02.791Z,2.00
2023-03-11T14:05:46.216Z,2.33
2023-03-11T14:08:24.160Z,1.52
2023-03-11T14:10:56.913Z,2.45
2023-03-11T14:13:26.159Z,2.10
2023-03-11T14:15:56.874Z,2.00
2023-03-11T14:18:33.491Z,2.33
2023-03-11T14:21:02.695Z,3.05
2023-03-11T14:23:49.012Z,3.22
2023-03-11T14:26:32.121Z,3.08
2023-03-11T14:29:07.358Z,3.05
2023-03-11T14:31:38.048Z,3.30
2023-03-11T14:34:15.003Z,2.70
2023-03-11T14:36:45.177Z,3.45
2023-03-11T14:39:23.509Z,2.70
2023-03-11T14:41:53.341Z,2.67
2023-03-11T14:44:22.805Z,2.55
2023-03-11T14:46:51.835Z,2.38
2023-03-11T14:49:23.809Z,2.90
2023-03-11T14:51:58.985Z,1.92
2023-03-11T14:54:31.144Z,2.03
2023-03-11T14:57:23.865Z,2.45
2023-03-11T14:59:52.566Z,1.90
2023-03-11T15:02:43.810Z,2.40
2023-03-11T15:05:48.884Z,2.67
2023-03-11T15:08:22.753Z,2.05
2023-03-11T15:11:19.830Z,2.75
2023-03-11T15:13:52.490Z,2.58
2023-03-11T15:16:29.629Z,2.38
2023-03-11T15:18:57.539Z,3.20
2023-03-11T15:21:25.364Z,2.00
2023-03-11T15:24:02.046Z,1.92
2023-03-11T15:26:33.752Z,2.47
2023-03-11T15:29:06.609Z,2.00
2023-03-11T15:31:38.729Z,3.20
2023-03-11T15:34:19.303Z,3.17
2023-03-11T15:36:49.610Z,3.97
2023-03-11T15:39:21.752Z,2.65
2023-03-11T15:42:07.685Z,3.67
2023-03-11T15:44:41.396Z,2.92
2023-03-11T15:47:17.899Z,2.55
2023-03-11T15:49:45.591Z,2.90
2023-03-11T15:52:13.965Z,2.97
2023-03-11T15:54:41.033Z,3.30
2023-03-11T15:57:21.605Z,2.35
2023-03-11T15:59:48.794Z,3.65
2023-03-11T16:02:22.708Z,3.90
2023-03-11T16:04:50.939Z,3.55
2023-03-11T16:07:21.798Z,4.07
2023-03-11T16:09:56.571Z,3.38
2023-03-11T16:12:25.073Z,3.40
2023-03-11T16:14:51.852Z,2.50
2023-03-11T16:19:49.223Z,2.97
2023-03-11T16:22:24.768Z,3.38
2023-03-11T16:24:54.800Z,2.38
2023-03-11T16:27:21.634Z,3.45
2023-03-11T16:32:15.254Z,2.47
2023-03-11T16:34:42.520Z,2.92
2023-03-11T16:37:15.549Z,2.42
2023-03-11T16:39:42.679Z,1.98
2023-03-11T16:42:09.968Z,1.70
2023-03-11T16:44:39.110Z,3.08
2023-03-11T16:47:06.054Z,2.80
2023-03-11T16:49:34.063Z,2.63
2023-03-11T16:52:04.024Z,2.53
2023-03-11T16:54:31.090Z,3.00
2023-03-11T16:59:26.283Z,2.25
2023-03-11T17:01:53.161Z,4.32
2023-03-11T17:04:20.161Z,3.17
2023-03-11T17:09:14.007Z,3.03
2023-03-11T17:11:41.083Z,5.10
2023-03-11T17:14:16.400Z,3.78
2023-03-11T17:16:45.493Z,4.70
2023-03-11T17:19:13.468Z,4.30
2023-03-11T17:21:40.641Z,4.03
2023-03-11T17:24:08.496Z,8.88
2023-03-11T17:26:38.535Z,2.83
2023-03-11T17:29:05.701Z,3.22
2023-03-11T17:31:33.022Z,3.10
2023-03-11T17:34:00.201Z,2.20
2023-03-11T17:36:27.700Z,4.90
2023-03-11T17:38:54.704Z,4.20
2023-03-11T17:41:23.721Z,2.70
2023-03-11T17:43:51.604Z,3.15
2023-03-11T17:46:20.336Z,3.25
2023-03-11T17:48:49.298Z,3.47
2023-03-11T17:51:22.541Z,2.97
2023-03-11T17:53:50.286Z,2.75
2023-03-11T17:56:18.977Z,5.00
2023-03-11T17:58:46.888Z,4.25
2023-03-11T18:01:17.124Z,4.63
2023-03-11T18:03:44.203Z,4.78
2023-03-11T18:06:12.485Z,3.47
2023-03-11T18:08:39.529Z,3.60
2023-03-11T18:11:18.805Z,4.97
2023-03-11T18:13:46.327Z,4.50
2023-03-11T18:16:14.915Z,3.35
2023-03-11T18:18:43.923Z,3.42
2023-03-11T18:21:14.645Z,3.28
2023-03-11T18:23:42.612Z,5.15
2023-03-11T18:26:11.996Z,3.53
2023-03-11T18:28:39.512Z,3.90
2023-03-11T18:31:18.436Z,4.65
2023-03-11T18:36:18.491Z,3.80
2023-03-11T18:38:46.808Z,5.47
2023-03-11T18:41:13.985Z,5.22
2023-03-11T18:43:41.294Z,5.75
2023-03-11T18:46:11.882Z,4.88
2023-03-11T18:48:39.220Z,6.95
2023-03-11T18:51:08.631Z,5.55
2023-03-11T18:53:36.286Z,4.80
2023-03-11T18:56:10.094Z,4.90
2023-03-11T18:58:36.961Z,4.63
2023-03-11T19:01:14.240Z,2.90
2023-03-11T19:03:43.369Z,3.20
2023-03-11T19:06:12.327Z,2.75
2023-03-11T19:08:39.925Z,3.33
2023-03-11T19:11:12.805Z,3.83
2023-03-11T19:13:46.930Z,2.72
2023-03-11T19:16:17.132Z,4.60
2023-03-11T19:18:44.437Z,4.18
2023-03-11T19:21:13.068Z,4.97
2023-03-11T19:23:40.079Z,5.25
2023-03-11T19:28:35.720Z,4.53
2023-03-11T19:31:03.714Z,4.72
2023-03-11T19:33:31.033Z,5.28
2023-03-11T19:36:00.188Z,6.82
2023-03-11T19:38:28.734Z,7.05
2023-03-11T19:41:03.385Z,7.53
2023-03-11T19:43:30.886Z,6.80
2023-03-11T19:46:00.435Z,5.85
2023-03-11T19:48:28.125Z,4.47
2023-03-11T19:50:55.863Z,5.95
2023-03-11T19:53:23.670Z,6.20
2023-03-11T19:55:53.859Z,5.57
2023-03-11T19:58:23.945Z,6.10
2023-03-11T20:00:54.635Z,4.68
2023-03-11T20:03:22.714Z,6.25
2023-03-11T20:05:56.020Z,6.78
2023-03-11T20:08:25.609Z,6.80
2023-03-11T20:10:53.454Z,6.18
2023-03-11T20:13:21.939Z,5.15
2023-03-11T20:15:49.911Z,5.30
2023-03-11T20:18:18.335Z,6.00
2023-03-11T20:20:45.889Z,6.65
2023-03-11T20:23:13.793Z,7.10
2023-03-11T20:25:41.800Z,6.32
2023-03-11T20:28:09.446Z,6.97
2023-03-11T20:30:38.837Z,6.28
2023-03-11T20:33:07.708Z,5.35
2023-03-11T20:35:34.971Z,6.18
2023-03-11T20:38:03.258Z,6.43
2023-03-11T20:40:30.394Z,4.85
2023-03-11T20:42:59.393Z,6.35
2023-03-11T20:45:26.618Z,6.10
2023-03-11T20:47:54.179Z,7.05
2023-03-11T20:50:22.334Z,6.38
2023-03-11T20:52:49.953Z,8.45
2023-03-11T20:55:17.323Z,8.35
2023-03-11T20:57:44.915Z,6.03
2023-03-11T21:00:12.762Z,5.15
2023-03-11T21:02:42.329Z,4.55
2023-03-11T21:05:10.061Z,5.28
2023-03-11T21:07:37.289Z,4.82
2023-03-11T21:10:07.758Z,4.68
2023-03-11T21:12:35.744Z,5.22
2023-03-11T21:15:03.917Z,4.57
2023-03-11T21:17:31.011Z,4.45
2023-03-11T21:19:58.078Z,3.92
2023-03-11T21:22:25.306Z,4.88
2023-03-11T21:24:54.365Z,4.47
2023-03-11T21:27:26.506Z,4.22
2023-03-11T21:29:57.289Z,4.10
2023-03-11T21:32:26.763Z,4.32
2023-03-11T21:34:59.494Z,4.55
2023-03-11T21:37:28.825Z,4.55
2023-03-11T21:39:56.262Z,3.85
2023-03-11T21:42:23.503Z,4.65
2023-03-11T21:44:51.574Z,4.25
2023-03-11T21:47:19.510Z,4.70
2023-03-11T21:49:46.996Z,4.55
2023-03-11T21:52:13.920Z,4.32
2023-03-11T21:54:41.060Z,4.63
2023-03-11T21:57:08.207Z,3.35
2023-03-11T21:59:35.087Z,4.25
2023-03-11T22:02:03.262Z,4.10
2023-03-11T22:04:31.583Z,3.85
2023-03-11T22:06:59.120Z,4.85
2023-03-11T22:09:27.087Z,5.38
2023-03-11T22:11:56.279Z,5.97
2023-03-11T22:14:24.236Z,5.38
2023-03-11T22:16:51.546Z,5.68
2023-03-11T22:19:18.676Z,5.53
2023-03-11T22:21:46.248Z,6.18
2023-03-11T22:24:13.276Z,5.82
2023-03-11T22:26:40.107Z,5.10
2023-03-11T22:29:09.021Z,4.68
2023-03-11T22:31:36.198Z,4.00
2023-03-11T22:34:03.097Z,4.97
2023-03-11T22:36:30.442Z,3.67
2023-03-11T22:38:57.542Z,3.42
2023-03-11T22:41:24.468Z,5.10
2023-03-11T22:46:17.980Z,5.03
2023-03-11T22:51:13.198Z,4.43
2023-03-11T22:53:40.177Z,4.43
2023-03-11T22:58:36.432Z,3.33
2023-03-11T23:01:06.981Z,4.45
2023-03-11T23:03:34.954Z,4.53
2023-03-11T23:06:04.973Z,5.10
2023-03-11T23:08:31.781Z,4.70
2023-03-11T23:11:03.257Z,4.38
2023-03-11T23:13:31.182Z,4.78
2023-03-11T23:16:09.449Z,4.88
2023-03-11T23:18:36.957Z,4.57
2023-03-11T23:21:04.083Z,5.32
2023-03-11T23:23:32.628Z,4.70
2023-03-11T23:26:00.092Z,5.22
2023-03-11T23:28:26.995Z,4.38
2023-03-11T23:30:53.902Z,4.30
2023-03-11T23:33:20.705Z,3.28
2023-03-11T23:38:14.504Z,3.15
2023-03-11T23:40:41.676Z,3.78
2023-03-11T23:43:08.484Z,4.32
2023-03-11T23:45:35.569Z,3.40
2023-03-11T23:48:02.515Z,3.45
2023-03-11T23:50:29.263Z,3.10
2023-03-11T23:55:23.112Z,4.40
2023-03-11T23:57:52.528Z,3.30
